Nearby METAR* Reports

*"METAR [Météorologique Aviation Régulière] is the international standard code format for hourly surface weather observations which is analogous to the SA coding currently used in the US. The acronym roughly translates from French as Aviation Routine Weather Report." (Source: http://gosic.org/wdcmet/us-metar-faq-taf)

 

KTEB - Teterboro, New Jersey, USA
Distance from station: ENE 2mi, 3km
Updated: 02/19/2019 8:51am
Clear
Clear
 Wind from NW
Wind: NW 9 mph , 15 km/h, Gust: 20 mph , 31 km/h
Temperature: 27°F , -3°C
Wind Chill: 18°F , -8°C
Dew Point: 10°F , -12°C
Humidity: 50%
Barometer: 30.57 inHg , 1035.2 hPa
Clouds: Clear
Visibility: 10 miles , 16 km
2019/02/19 13:51 KTEB 191351Z 32008G17KT 10SM CLR M03/M12 A3057 RMK AO2 SLP352 T10331122 $
KNYC - Nyc/Central Park, New York, USA
Distance from station: SE 8mi, 13km
Updated: 02/19/2019 8:51am
Clear
Clear
 
Temperature: 25°F , -4°C
Dew Point: 9°F , -13°C
Humidity: 50%
Barometer: 30.58 inHg , 1035.6 hPa
Clouds: Clear
Visibility: 10 miles , 16 km
2019/02/19 13:51 KNYC 191351Z AUTO 10SM CLR M04/M13 A3058 RMK AO2 SLP347 T10391128 $
KCDW - Caldwell, New Jersey, USA
Distance from station: W 11mi, 17km
Updated: 02/19/2019 8:53am
Clear
Clear
 Wind from WNW
Wind: WNW 13 mph , 20 km/h
Temperature: 25°F , -4°C
Wind Chill: 13°F , -11°C
Dew Point: 9°F , -13°C
Humidity: 50%
Barometer: 30.58 inHg , 1035.6 hPa
Clouds: Clear
Visibility: 10 miles , 16 km
2019/02/19 13:53 KCDW 191353Z 30011KT 10SM CLR M04/M13 A3058 RMK AO2 SLP362 T10441133
 
KLGA - Nyc/La Guardia, New York, USA
Distance from station: ESE 12mi, 19km
Updated: 02/19/2019 8:51am
Partly cloudy
Partly cloudy
 Wind from NW
Wind: NW 18 mph , 30 km/h
Temperature: 27°F , -3°C
Wind Chill: 14°F , -10°C
Dew Point: 10°F , -12°C
Humidity: 50%
Barometer: 30.56 inHg , 1034.9 hPa
Clouds: Partly cloudy
Visibility: 10 miles , 16 km
Cloud details: Partly cloudy 25000 ft
2019/02/19 13:51 KLGA 191351Z 31016KT 10SM SCT250 M03/M12 A3056 RMK AO2 SLP347 T10331117
KEWR - Newark, New Jersey, USA
Distance from station: SSW 13mi, 20km
Updated: 02/19/2019 8:51am
Mostly cloudy
Mostly cloudy
 Wind from NW
Wind: NW 14 mph , 22 km/h, Gust: 20 mph , 31 km/h
Temperature: 27°F , -3°C
Wind Chill: 16°F , -9°C
Dew Point: 9°F , -13°C
Humidity: 46%
Barometer: 30.58 inHg , 1035.6 hPa
Clouds: Mostly cloudy
Visibility: 10 miles , 16 km
Cloud details: Few Clouds 5000 ft
Mostly cloudy 25000 ft
2019/02/19 13:51 KEWR 191351Z 31012G17KT 10SM FEW050 BKN250 M03/M13 A3058 RMK AO2 SLP353 T10281133
KMMU - Morristown Muni, New Jersey, USA
Distance from station: WSW 18mi, 29km
Updated: 02/19/2019 8:45am
Partly cloudy
Partly cloudy
 Wind from NNW
Wind: NNW 10 mph , 17 km/h
Temperature: 25°F , -4°C
Wind Chill: 15°F , -9°C
Dew Point: 12°F , -11°C
Humidity: 59%
Barometer: 30.58 inHg , 1035.6 hPa
Clouds: Partly cloudy
Visibility: 10 miles , 16 km
Cloud details: Partly cloudy 25000 ft
2019/02/19 13:45 KMMU 191345Z 33009KT 10SM SCT250 M04/M11 A3058
 
KLDJ - Linden, New Jersey, USA
Distance from station: SSW 19mi, 30km
Updated: 02/19/2019 9:15am
Clear
Clear
 Wind from N
Wind: N 12 mph , 19 km/h
Temperature: 27°F , -3°C
Wind Chill: 16°F , -9°C
Dew Point: 7°F , -14°C
Humidity: 43%
Barometer: 30.59 inHg , 1035.9 hPa
Clouds: Clear
Visibility: 10 miles , 16 km
2019/02/19 14:15 KLDJ 191415Z AUTO 35010KT 10SM CLR M03/M14 A3059 RMK AO2 T10301137
KJFK - Nyc/Jfk Arpt, New York, USA
Distance from station: SE 23mi, 36km
Updated: 02/19/2019 8:51am
Mostly cloudy
Mostly cloudy
 Wind from NW
Wind: NW 13 mph , 20 km/h
Temperature: 27°F , -3°C
Wind Chill: 16°F , -9°C
Dew Point: 10°F , -12°C
Humidity: 50%
Barometer: 30.57 inHg , 1035.2 hPa
Clouds: Mostly cloudy
Visibility: 10 miles , 16 km
Cloud details: Few Clouds 4500 ft
Mostly cloudy 28000 ft
2019/02/19 13:51 KJFK 191351Z 32011KT 10SM FEW045 BKN280 M03/M12 A3057 RMK AO2 SLP352 T10281122 $
KHPN - White Plains, New York, USA
Distance from station: NE 25mi, 40km
Updated: 02/19/2019 8:56am
Clear
Clear
 Wind from NW
Wind: NW 12 mph , 19 km/h
Temperature: 25°F , -4°C
Wind Chill: 14°F , -10°C
Dew Point: 10°F , -12°C
Humidity: 54%
Barometer: 30.52 inHg , 1033.5 hPa
Clouds: Clear
Visibility: 10 miles , 16 km
2019/02/19 13:56 KHPN 191356Z 32010KT 10SM CLR M04/M12 A3052 RMK AO2 SLP345 T10441122
 
KSMQ - Somerville, New Jersey, USA
Distance from station: WSW 35mi, 56km
Updated: 02/19/2019 8:53am
Clear
Clear
 Wind from NNW
Wind: NNW 9 mph , 15 km/h, Gust: 17 mph , 28 km/h
Temperature: 25°F , -4°C
Wind Chill: 16°F , -9°C
Dew Point: 7°F , -14°C
Humidity: 46%
Barometer: 30.57 inHg , 1035.2 hPa
Clouds: Clear
Visibility: 10 miles , 16 km
2019/02/19 13:53 KSMQ 191353Z AUTO 34008G15KT 300V360 10SM CLR M04/M14 A3057 RMK AO2 SLP356 T10391139
K12N - Andover, New Jersey, USA
Distance from station: WNW 36mi, 57km
Updated: 02/19/2019 8:54am

 Wind from varies
Wind: varies 5 mph , 7 km/h
Temperature: 21°F , -6°C
Wind Chill: 14°F , -10°C
Dew Point: 7°F , -14°C
Humidity: 54%
Barometer: 30.55 inHg , 1034.5 hPa
2019/02/19 13:54 K12N 191354Z AUTO VRB04KT M06/M14 A3055 RMK AO1 SLP361 T10561139
KFRG - Farmingdale, New York, USA
Distance from station: ESE 36mi, 58km
Updated: 02/19/2019 8:53am
Clear
Clear
 Wind from NNW
Wind: NNW 9 mph , 15 km/h
Temperature: 27°F , -3°C
Wind Chill: 18°F , -8°C
Dew Point: 10°F , -12°C
Humidity: 50%
Barometer: 30.55 inHg , 1034.5 hPa
Clouds: Clear
Visibility: 10 miles , 16 km
2019/02/19 13:53 KFRG 191353Z 34008KT 10SM CLR M03/M12 A3055 RMK AO2 SLP345 T10331117
 
KFWN - Sussex, New Jersey, USA
Distance from station: NW 37mi, 60km
Updated: 02/19/2019 8:53am
Clear
Clear
 Wind from calm
Wind: Calm
Temperature: 23°F , -5°C
Dew Point: 10°F , -12°C
Humidity: 58%
Barometer: 30.54 inHg , 1034.2 hPa
Clouds: Clear
Visibility: 10 miles , 16 km
2019/02/19 13:53 KFWN 191353Z AUTO 00000KT 10SM CLR M05/M12 A3054 RMK AO2 SLP349 T10501122 $
KSWF - Newburgh/Stewart, New York, USA
Distance from station: 0 44mi, 72km
Updated: 02/19/2019 8:45am
Clear
Clear
 Wind from calm
Wind: Calm
Temperature: 23°F , -5°C
Dew Point: 14°F , -10°C
Humidity: 68%
Barometer: 30.52 inHg , 1033.5 hPa
Clouds: Clear
Visibility: 20 miles , 32 km
2019/02/19 13:45 KSWF 191345Z 00000KT 20SM SKC M05/M10 A3052
KMGJ - Montgomery, New York, USA
Distance from station: NNW 47mi, 75km
Updated: 02/19/2019 8:54am
Clear
Clear
 Wind from NW
Wind: NW 10 mph , 17 km/h
Temperature: 21°F , -6°C
Wind Chill: 10°F , -12°C
Dew Point: 9°F , -13°C
Humidity: 58%
Barometer: 30.52 inHg , 1033.5 hPa
Clouds: Clear
Visibility: 10 miles , 16 km
2019/02/19 13:54 KMGJ 191354Z AUTO 31009KT 10SM CLR M06/M13 A3052 RMK AO2 SLP342 T10611133
 
KDXR - Danbury, Connecticut, USA
Distance from station: NE 47mi, 76km
Updated: 02/19/2019 8:53am
Clear
Clear
 Wind from NNW
Wind: NNW 7 mph , 11 km/h
Temperature: 21°F , -6°C
Wind Chill: 12°F , -11°C
Dew Point: 9°F , -13°C
Humidity: 58%
Barometer: 30.52 inHg , 1033.5 hPa
Clouds: Clear
Visibility: 10 miles , 16 km
2019/02/19 13:53 KDXR 191353Z 34006KT 10SM CLR M06/M13 A3052 RMK AO2 SLP341 T10561133
KBLM - Belmar/Farmdale, New Jersey, USA
Distance from station: S 48mi, 77km
Updated: 02/19/2019 8:56am
Clear
Clear
 Wind from WNW
Wind: WNW 15 mph , 24 km/h, Gust: 21 mph , 33 km/h
Temperature: 27°F , -3°C
Wind Chill: 15°F , -9°C
Dew Point: 10°F , -12°C
Humidity: 50%
Barometer: 30.58 inHg , 1035.6 hPa
Clouds: Clear
Visibility: 10 miles , 16 km
2019/02/19 13:56 KBLM 191356Z AUTO 30013G18KT 10SM CLR M03/M12 A3058 RMK AO2 SLP360 T10331117 FZRANO